sensor_id;sensor_type;location;lat;lon;timestamp;P1;durP1;ratioP1;P2;durP2;ratioP2
53519;SDS011;39397;53.204;5.778;2022-08-01T00:01:54;8.68;;;4.85;;
53519;SDS011;39397;53.204;5.778;2022-08-01T00:04:20;6.40;;;4.38;;
53519;SDS011;39397;53.204;5.778;2022-08-01T00:06:45;8.27;;;4.50;;
53519;SDS011;39397;53.204;5.778;2022-08-01T00:09:11;10.25;;;4.25;;
53519;SDS011;39397;53.204;5.778;2022-08-01T00:11:37;8.90;;;4.85;;
53519;SDS011;39397;53.204;5.778;2022-08-01T00:14:02;7.13;;;4.30;;
53519;SDS011;39397;53.204;5.778;2022-08-01T00:16:28;11.00;;;4.90;;
53519;SDS011;39397;53.204;5.778;2022-08-01T00:18:54;8.57;;;4.22;;
53519;SDS011;39397;53.204;5.778;2022-08-01T00:21:20;8.85;;;4.07;;
53519;SDS011;39397;53.204;5.778;2022-08-01T00:23:46;9.98;;;4.50;;
53519;SDS011;39397;53.204;5.778;2022-08-01T00:26:12;11.82;;;4.40;;
53519;SDS011;39397;53.204;5.778;2022-08-01T00:28:39;11.50;;;4.47;;
53519;SDS011;39397;53.204;5.778;2022-08-01T00:31:05;9.10;;;4.60;;
53519;SDS011;39397;53.204;5.778;2022-08-01T00:33:30;11.93;;;5.43;;
53519;SDS011;39397;53.204;5.778;2022-08-01T00:35:56;9.25;;;4.30;;
53519;SDS011;39397;53.204;5.778;2022-08-01T00:38:22;14.25;;;4.13;;
53519;SDS011;39397;53.204;5.778;2022-08-01T00:40:48;8.25;;;3.63;;
53519;SDS011;39397;53.204;5.778;2022-08-01T00:43:14;9.50;;;3.95;;
53519;SDS011;39397;53.204;5.778;2022-08-01T00:45:40;11.48;;;3.67;;
53519;SDS011;39397;53.204;5.778;2022-08-01T00:48:05;7.18;;;3.28;;
53519;SDS011;39397;53.204;5.778;2022-08-01T00:50:31;8.43;;;3.17;;
53519;SDS011;39397;53.204;5.778;2022-08-01T00:52:58;8.02;;;3.35;;
53519;SDS011;39397;53.204;5.778;2022-08-01T00:55:24;7.50;;;3.10;;
53519;SDS011;39397;53.204;5.778;2022-08-01T00:57:55;9.18;;;2.92;;
53519;SDS011;39397;53.204;5.778;2022-08-01T01:00:21;7.85;;;3.10;;
53519;SDS011;39397;53.204;5.778;2022-08-01T01:02:47;6.25;;;2.75;;
53519;SDS011;39397;53.204;5.778;2022-08-01T01:05:13;8.10;;;2.83;;
53519;SDS011;39397;53.204;5.778;2022-08-01T01:10:48;8.57;;;2.20;;
53519;SDS011;39397;53.204;5.778;2022-08-01T01:15:54;8.68;;;2.15;;
53519;SDS011;39397;53.204;5.778;2022-08-01T01:18:24;6.13;;;2.38;;
53519;SDS011;39397;53.204;5.778;2022-08-01T01:26:54;8.32;;;2.40;;
53519;SDS011;39397;53.204;5.778;2022-08-01T01:29:40;7.55;;;2.63;;
53519;SDS011;39397;53.204;5.778;2022-08-01T01:32:43;8.88;;;3.10;;
53519;SDS011;39397;53.204;5.778;2022-08-01T01:37:39;13.30;;;3.30;;
53519;SDS011;39397;53.204;5.778;2022-08-01T01:40:07;11.23;;;2.90;;
53519;SDS011;39397;53.204;5.778;2022-08-01T01:42:35;11.77;;;3.17;;
53519;SDS011;39397;53.204;5.778;2022-08-01T01:45:04;12.38;;;3.20;;
53519;SDS011;39397;53.204;5.778;2022-08-01T01:47:31;13.25;;;3.65;;
53519;SDS011;39397;53.204;5.778;2022-08-01T01:49:57;16.95;;;3.75;;
53519;SDS011;39397;53.204;5.778;2022-08-01T01:52:25;13.18;;;3.38;;
53519;SDS011;39397;53.204;5.778;2022-08-01T01:54:52;12.70;;;3.47;;
53519;SDS011;39397;53.204;5.778;2022-08-01T01:57:21;13.63;;;3.33;;
53519;SDS011;39397;53.204;5.778;2022-08-01T01:59:48;14.02;;;3.67;;
53519;SDS011;39397;53.204;5.778;2022-08-01T02:02:16;14.13;;;3.10;;
53519;SDS011;39397;53.204;5.778;2022-08-01T02:04:43;23.08;;;4.07;;
53519;SDS011;39397;53.204;5.778;2022-08-01T02:07:12;18.58;;;3.55;;
53519;SDS011;39397;53.204;5.778;2022-08-01T02:09:47;12.18;;;3.35;;
53519;SDS011;39397;53.204;5.778;2022-08-01T02:12:14;14.85;;;3.47;;
53519;SDS011;39397;53.204;5.778;2022-08-01T02:14:42;12.45;;;2.97;;
53519;SDS011;39397;53.204;5.778;2022-08-01T02:17:10;12.50;;;3.25;;
53519;SDS011;39397;53.204;5.778;2022-08-01T02:19:37;13.15;;;2.80;;
53519;SDS011;39397;53.204;5.778;2022-08-01T02:22:16;12.98;;;3.65;;
53519;SDS011;39397;53.204;5.778;2022-08-01T02:24:58;11.35;;;3.05;;
53519;SDS011;39397;53.204;5.778;2022-08-01T02:27:40;11.82;;;3.22;;
53519;SDS011;39397;53.204;5.778;2022-08-01T02:30:16;10.10;;;2.90;;
53519;SDS011;39397;53.204;5.778;2022-08-01T02:32:45;10.45;;;2.80;;
53519;SDS011;39397;53.204;5.778;2022-08-01T02:35:18;15.98;;;3.35;;
53519;SDS011;39397;53.204;5.778;2022-08-01T02:37:48;15.77;;;3.35;;
53519;SDS011;39397;53.204;5.778;2022-08-01T02:40:14;11.02;;;3.45;;
53519;SDS011;39397;53.204;5.778;2022-08-01T02:42:49;17.48;;;4.18;;
53519;SDS011;39397;53.204;5.778;2022-08-01T02:45:18;11.73;;;3.08;;
53519;SDS011;39397;53.204;5.778;2022-08-01T02:47:47;11.52;;;3.05;;
53519;SDS011;39397;53.204;5.778;2022-08-01T02:50:14;10.35;;;3.10;;
53519;SDS011;39397;53.204;5.778;2022-08-01T02:52:42;11.23;;;2.97;;
53519;SDS011;39397;53.204;5.778;2022-08-01T02:55:11;15.43;;;3.33;;
53519;SDS011;39397;53.204;5.778;2022-08-01T02:57:38;14.68;;;2.80;;
53519;SDS011;39397;53.204;5.778;2022-08-01T03:00:07;9.80;;;3.17;;
53519;SDS011;39397;53.204;5.778;2022-08-01T03:02:33;9.45;;;3.00;;
53519;SDS011;39397;53.204;5.778;2022-08-01T03:05:01;8.75;;;2.42;;
53519;SDS011;39397;53.204;5.778;2022-08-01T03:07:28;10.73;;;3.03;;
53519;SDS011;39397;53.204;5.778;2022-08-01T03:09:54;11.95;;;2.80;;
53519;SDS011;39397;53.204;5.778;2022-08-01T03:12:23;8.10;;;2.58;;
53519;SDS011;39397;53.204;5.778;2022-08-01T03:14:51;12.45;;;2.83;;
53519;SDS011;39397;53.204;5.778;2022-08-01T03:17:21;9.85;;;2.90;;
53519;SDS011;39397;53.204;5.778;2022-08-01T03:19:49;11.80;;;3.25;;
53519;SDS011;39397;53.204;5.778;2022-08-01T03:22:17;11.20;;;2.42;;
53519;SDS011;39397;53.204;5.778;2022-08-01T03:24:45;11.00;;;2.75;;
53519;SDS011;39397;53.204;5.778;2022-08-01T03:27:14;13.57;;;2.75;;
53519;SDS011;39397;53.204;5.778;2022-08-01T03:29:43;13.35;;;3.10;;
53519;SDS011;39397;53.204;5.778;2022-08-01T03:32:10;13.00;;;2.78;;
53519;SDS011;39397;53.204;5.778;2022-08-01T03:34:37;15.75;;;2.90;;
53519;SDS011;39397;53.204;5.778;2022-08-01T03:37:08;20.48;;;2.97;;
53519;SDS011;39397;53.204;5.778;2022-08-01T03:39:54;18.02;;;3.22;;
53519;SDS011;39397;53.204;5.778;2022-08-01T03:42:28;14.77;;;3.78;;
53519;SDS011;39397;53.204;5.778;2022-08-01T03:45:21;17.77;;;3.08;;
53519;SDS011;39397;53.204;5.778;2022-08-01T03:47:52;17.58;;;3.40;;
53519;SDS011;39397;53.204;5.778;2022-08-01T03:50:24;19.40;;;3.08;;
53519;SDS011;39397;53.204;5.778;2022-08-01T03:52:52;20.20;;;4.00;;
53519;SDS011;39397;53.204;5.778;2022-08-01T03:55:21;19.25;;;2.95;;
53519;SDS011;39397;53.204;5.778;2022-08-01T03:57:48;15.30;;;3.70;;
53519;SDS011;39397;53.204;5.778;2022-08-01T04:00:16;16.02;;;2.47;;
53519;SDS011;39397;53.204;5.778;2022-08-01T04:02:44;16.30;;;3.00;;
53519;SDS011;39397;53.204;5.778;2022-08-01T04:05:12;12.27;;;2.72;;
53519;SDS011;39397;53.204;5.778;2022-08-01T04:07:37;13.20;;;2.55;;
53519;SDS011;39397;53.204;5.778;2022-08-01T04:10:08;17.92;;;2.78;;
53519;SDS011;39397;53.204;5.778;2022-08-01T04:12:33;18.00;;;2.80;;
53519;SDS011;39397;53.204;5.778;2022-08-01T04:14:59;15.07;;;3.55;;
53519;SDS011;39397;53.204;5.778;2022-08-01T04:17:25;15.45;;;3.17;;
53519;SDS011;39397;53.204;5.778;2022-08-01T04:19:50;17.67;;;3.03;;
53519;SDS011;39397;53.204;5.778;2022-08-01T04:22:16;16.20;;;2.80;;
53519;SDS011;39397;53.204;5.778;2022-08-01T04:24:48;15.93;;;3.88;;
53519;SDS011;39397;53.204;5.778;2022-08-01T04:27:19;15.90;;;2.70;;
53519;SDS011;39397;53.204;5.778;2022-08-01T04:29:53;15.93;;;2.97;;
53519;SDS011;39397;53.204;5.778;2022-08-01T04:32:22;16.75;;;3.20;;
53519;SDS011;39397;53.204;5.778;2022-08-01T04:34:50;18.20;;;3.15;;
53519;SDS011;39397;53.204;5.778;2022-08-01T04:37:16;14.27;;;3.35;;
53519;SDS011;39397;53.204;5.778;2022-08-01T04:39:43;15.00;;;2.80;;
53519;SDS011;39397;53.204;5.778;2022-08-01T04:42:11;18.38;;;4.30;;
53519;SDS011;39397;53.204;5.778;2022-08-01T04:44:38;17.10;;;2.80;;
53519;SDS011;39397;53.204;5.778;2022-08-01T04:47:04;15.23;;;2.50;;
53519;SDS011;39397;53.204;5.778;2022-08-01T04:49:32;18.05;;;3.83;;
53519;SDS011;39397;53.204;5.778;2022-08-01T04:51:59;17.05;;;2.80;;
53519;SDS011;39397;53.204;5.778;2022-08-01T04:54:29;15.30;;;2.80;;
53519;SDS011;39397;53.204;5.778;2022-08-01T04:56:58;16.70;;;3.03;;
53519;SDS011;39397;53.204;5.778;2022-08-01T04:59:32;12.98;;;2.92;;
53519;SDS011;39397;53.204;5.778;2022-08-01T05:02:16;16.80;;;3.22;;
53519;SDS011;39397;53.204;5.778;2022-08-01T05:04:43;13.77;;;2.58;;
53519;SDS011;39397;53.204;5.778;2022-08-01T05:07:10;19.02;;;4.00;;
53519;SDS011;39397;53.204;5.778;2022-08-01T05:09:37;17.63;;;3.30;;
53519;SDS011;39397;53.204;5.778;2022-08-01T05:12:04;15.93;;;2.40;;
53519;SDS011;39397;53.204;5.778;2022-08-01T05:14:31;16.02;;;3.10;;
53519;SDS011;39397;53.204;5.778;2022-08-01T05:17:01;18.50;;;2.55;;
53519;SDS011;39397;53.204;5.778;2022-08-01T05:19:47;18.58;;;2.80;;
53519;SDS011;39397;53.204;5.778;2022-08-01T05:22:12;12.98;;;2.78;;
53519;SDS011;39397;53.204;5.778;2022-08-01T05:24:38;22.20;;;3.17;;
53519;SDS011;39397;53.204;5.778;2022-08-01T05:27:05;17.33;;;2.78;;
53519;SDS011;39397;53.204;5.778;2022-08-01T05:29:33;16.73;;;3.10;;
53519;SDS011;39397;53.204;5.778;2022-08-01T05:31:59;15.10;;;2.92;;
53519;SDS011;39397;53.204;5.778;2022-08-01T05:34:25;21.10;;;3.80;;
53519;SDS011;39397;53.204;5.778;2022-08-01T05:36:51;13.55;;;2.80;;
53519;SDS011;39397;53.204;5.778;2022-08-01T05:39:17;17.77;;;3.55;;
53519;SDS011;39397;53.204;5.778;2022-08-01T05:41:43;16.45;;;2.53;;
53519;SDS011;39397;53.204;5.778;2022-08-01T05:44:09;21.02;;;3.63;;
53519;SDS011;39397;53.204;5.778;2022-08-01T05:46:34;15.43;;;3.55;;
53519;SDS011;39397;53.204;5.778;2022-08-01T05:49:01;13.27;;;2.72;;
53519;SDS011;39397;53.204;5.778;2022-08-01T05:51:27;16.30;;;3.50;;
53519;SDS011;39397;53.204;5.778;2022-08-01T05:53:53;15.88;;;3.03;;
53519;SDS011;39397;53.204;5.778;2022-08-01T05:56:19;14.88;;;2.88;;
53519;SDS011;39397;53.204;5.778;2022-08-01T05:58:46;18.58;;;3.08;;
53519;SDS011;39397;53.204;5.778;2022-08-01T06:01:12;16.48;;;4.30;;
53519;SDS011;39397;53.204;5.778;2022-08-01T06:03:37;16.30;;;2.95;;
53519;SDS011;39397;53.204;5.778;2022-08-01T06:06:03;12.77;;;2.55;;
53519;SDS011;39397;53.204;5.778;2022-08-01T06:08:29;12.90;;;2.35;;
53519;SDS011;39397;53.204;5.778;2022-08-01T06:10:55;14.82;;;2.45;;
53519;SDS011;39397;53.204;5.778;2022-08-01T06:13:21;15.68;;;2.50;;
53519;SDS011;39397;53.204;5.778;2022-08-01T06:15:47;12.65;;;2.33;;
53519;SDS011;39397;53.204;5.778;2022-08-01T06:18:13;13.75;;;3.03;;
53519;SDS011;39397;53.204;5.778;2022-08-01T06:20:39;15.73;;;2.63;;
53519;SDS011;39397;53.204;5.778;2022-08-01T06:23:05;14.20;;;2.40;;
53519;SDS011;39397;53.204;5.778;2022-08-01T06:25:30;13.85;;;3.00;;
53519;SDS011;39397;53.204;5.778;2022-08-01T06:27:56;11.05;;;2.13;;
53519;SDS011;39397;53.204;5.778;2022-08-01T06:30:22;17.30;;;2.30;;
53519;SDS011;39397;53.204;5.778;2022-08-01T06:32:48;11.85;;;2.40;;
53519;SDS011;39397;53.204;5.778;2022-08-01T06:35:17;16.50;;;2.92;;
53519;SDS011;39397;53.204;5.778;2022-08-01T06:37:43;10.43;;;2.28;;
53519;SDS011;39397;53.204;5.778;2022-08-01T06:40:10;13.23;;;3.00;;
53519;SDS011;39397;53.204;5.778;2022-08-01T06:42:36;9.95;;;1.90;;
53519;SDS011;39397;53.204;5.778;2022-08-01T06:47:29;13.60;;;2.05;;
53519;SDS011;39397;53.204;5.778;2022-08-01T06:49:54;12.52;;;1.95;;
53519;SDS011;39397;53.204;5.778;2022-08-01T06:52:20;9.75;;;1.92;;
53519;SDS011;39397;53.204;5.778;2022-08-01T06:54:46;10.43;;;2.28;;
53519;SDS011;39397;53.204;5.778;2022-08-01T06:57:12;9.65;;;1.83;;
53519;SDS011;39397;53.204;5.778;2022-08-01T06:59:37;13.48;;;2.38;;
53519;SDS011;39397;53.204;5.778;2022-08-01T07:02:03;9.48;;;1.75;;
53519;SDS011;39397;53.204;5.778;2022-08-01T07:04:29;10.18;;;2.15;;
53519;SDS011;39397;53.204;5.778;2022-08-01T07:06:55;11.82;;;2.15;;
53519;SDS011;39397;53.204;5.778;2022-08-01T07:09:21;12.73;;;2.30;;
53519;SDS011;39397;53.204;5.778;2022-08-01T07:11:47;9.38;;;1.50;;
53519;SDS011;39397;53.204;5.778;2022-08-01T07:14:13;10.75;;;1.67;;
53519;SDS011;39397;53.204;5.778;2022-08-01T07:16:38;8.30;;;1.80;;
53519;SDS011;39397;53.204;5.778;2022-08-01T07:19:04;12.90;;;2.33;;
53519;SDS011;39397;53.204;5.778;2022-08-01T07:21:30;11.48;;;2.22;;
53519;SDS011;39397;53.204;5.778;2022-08-01T07:23:55;13.23;;;2.67;;
53519;SDS011;39397;53.204;5.778;2022-08-01T07:26:21;12.50;;;1.95;;
53519;SDS011;39397;53.204;5.778;2022-08-01T07:28:47;11.52;;;1.92;;
53519;SDS011;39397;53.204;5.778;2022-08-01T07:31:12;16.30;;;2.70;;
53519;SDS011;39397;53.204;5.778;2022-08-01T07:33:38;12.82;;;2.25;;
53519;SDS011;39397;53.204;5.778;2022-08-01T07:36:04;14.07;;;2.42;;
53519;SDS011;39397;53.204;5.778;2022-08-01T07:38:29;8.27;;;2.40;;
53519;SDS011;39397;53.204;5.778;2022-08-01T07:40:55;10.18;;;1.55;;
53519;SDS011;39397;53.204;5.778;2022-08-01T07:43:21;9.32;;;2.22;;
53519;SDS011;39397;53.204;5.778;2022-08-01T07:45:47;10.35;;;1.92;;
53519;SDS011;39397;53.204;5.778;2022-08-01T07:48:13;12.70;;;2.50;;
53519;SDS011;39397;53.204;5.778;2022-08-01T07:50:38;10.48;;;1.98;;
53519;SDS011;39397;53.204;5.778;2022-08-01T07:53:04;12.25;;;2.40;;
53519;SDS011;39397;53.204;5.778;2022-08-01T07:55:30;10.13;;;1.98;;
53519;SDS011;39397;53.204;5.778;2022-08-01T07:57:56;10.07;;;1.83;;
53519;SDS011;39397;53.204;5.778;2022-08-01T08:00:21;9.98;;;1.77;;
53519;SDS011;39397;53.204;5.778;2022-08-01T08:02:47;10.32;;;2.00;;
53519;SDS011;39397;53.204;5.778;2022-08-01T08:05:13;11.05;;;1.90;;
53519;SDS011;39397;53.204;5.778;2022-08-01T08:07:39;9.82;;;2.45;;
53519;SDS011;39397;53.204;5.778;2022-08-01T08:10:05;9.23;;;1.88;;
53519;SDS011;39397;53.204;5.778;2022-08-01T08:12:31;10.02;;;1.67;;
53519;SDS011;39397;53.204;5.778;2022-08-01T08:14:57;11.25;;;1.90;;
53519;SDS011;39397;53.204;5.778;2022-08-01T08:17:26;10.10;;;1.88;;
53519;SDS011;39397;53.204;5.778;2022-08-01T08:19:52;11.40;;;1.77;;
53519;SDS011;39397;53.204;5.778;2022-08-01T08:22:18;13.35;;;1.70;;
53519;SDS011;39397;53.204;5.778;2022-08-01T08:24:44;8.77;;;1.73;;
53519;SDS011;39397;53.204;5.778;2022-08-01T08:27:10;7.97;;;1.60;;
53519;SDS011;39397;53.204;5.778;2022-08-01T08:29:36;7.40;;;1.58;;
53519;SDS011;39397;53.204;5.778;2022-08-01T08:32:02;10.00;;;1.77;;
53519;SDS011;39397;53.204;5.778;2022-08-01T08:34:28;9.25;;;1.90;;
53519;SDS011;39397;53.204;5.778;2022-08-01T08:36:54;7.45;;;1.60;;
53519;SDS011;39397;53.204;5.778;2022-08-01T08:39:21;10.02;;;1.70;;
53519;SDS011;39397;53.204;5.778;2022-08-01T08:41:47;11.05;;;1.70;;
53519;SDS011;39397;53.204;5.778;2022-08-01T08:44:13;14.68;;;1.60;;
53519;SDS011;39397;53.204;5.778;2022-08-01T08:46:43;7.72;;;1.58;;
53519;SDS011;39397;53.204;5.778;2022-08-01T08:49:12;7.00;;;1.50;;
53519;SDS011;39397;53.204;5.778;2022-08-01T08:51:41;6.07;;;1.98;;
53519;SDS011;39397;53.204;5.778;2022-08-01T08:54:08;12.05;;;1.90;;
53519;SDS011;39397;53.204;5.778;2022-08-01T08:56:37;8.80;;;1.63;;
53519;SDS011;39397;53.204;5.778;2022-08-01T08:59:03;11.55;;;2.03;;
53519;SDS011;39397;53.204;5.778;2022-08-01T09:01:30;8.52;;;1.83;;
53519;SDS011;39397;53.204;5.778;2022-08-01T09:03:57;13.15;;;1.63;;
53519;SDS011;39397;53.204;5.778;2022-08-01T09:06:23;11.50;;;1.45;;
53519;SDS011;39397;53.204;5.778;2022-08-01T09:08:49;10.05;;;1.63;;
53519;SDS011;39397;53.204;5.778;2022-08-01T09:11:15;7.85;;;1.45;;
53519;SDS011;39397;53.204;5.778;2022-08-01T09:13:41;8.73;;;1.50;;
53519;SDS011;39397;53.204;5.778;2022-08-01T09:16:06;8.00;;;1.17;;
53519;SDS011;39397;53.204;5.778;2022-08-01T09:18:33;7.22;;;1.45;;
53519;SDS011;39397;53.204;5.778;2022-08-01T09:23:46;10.88;;;1.73;;
53519;SDS011;39397;53.204;5.778;2022-08-01T09:26:18;8.57;;;1.40;;
53519;SDS011;39397;53.204;5.778;2022-08-01T09:28:46;9.43;;;1.67;;
53519;SDS011;39397;53.204;5.778;2022-08-01T09:31:14;7.10;;;1.20;;
53519;SDS011;39397;53.204;5.778;2022-08-01T09:33:52;7.85;;;1.20;;
53519;SDS011;39397;53.204;5.778;2022-08-01T09:36:21;7.60;;;1.80;;
53519;SDS011;39397;53.204;5.778;2022-08-01T09:38:52;8.15;;;1.40;;
53519;SDS011;39397;53.204;5.778;2022-08-01T09:41:29;8.02;;;1.30;;
53519;SDS011;39397;53.204;5.778;2022-08-01T09:43:56;5.72;;;1.00;;
53519;SDS011;39397;53.204;5.778;2022-08-01T09:46:22;10.65;;;1.85;;
53519;SDS011;39397;53.204;5.778;2022-08-01T09:49:26;8.90;;;1.77;;
53519;SDS011;39397;53.204;5.778;2022-08-01T09:51:51;16.20;;;1.50;;
53519;SDS011;39397;53.204;5.778;2022-08-01T09:54:17;6.13;;;0.90;;
53519;SDS011;39397;53.204;5.778;2022-08-01T09:59:54;7.45;;;1.58;;
53519;SDS011;39397;53.204;5.778;2022-08-01T10:04:59;7.10;;;1.33;;
53519;SDS011;39397;53.204;5.778;2022-08-01T10:07:27;6.70;;;1.30;;
53519;SDS011;39397;53.204;5.778;2022-08-01T10:09:53;7.68;;;1.23;;
53519;SDS011;39397;53.204;5.778;2022-08-01T10:12:19;9.70;;;1.60;;
53519;SDS011;39397;53.204;5.778;2022-08-01T10:14:49;6.00;;;1.35;;
53519;SDS011;39397;53.204;5.778;2022-08-01T10:17:16;7.75;;;1.48;;
53519;SDS011;39397;53.204;5.778;2022-08-01T10:19:44;7.15;;;1.73;;
53519;SDS011;39397;53.204;5.778;2022-08-01T10:22:11;6.93;;;1.20;;
53519;SDS011;39397;53.204;5.778;2022-08-01T10:24:43;7.90;;;1.60;;
53519;SDS011;39397;53.204;5.778;2022-08-01T10:27:11;6.57;;;1.15;;
53519;SDS011;39397;53.204;5.778;2022-08-01T10:29:47;6.13;;;1.00;;
53519;SDS011;39397;53.204;5.778;2022-08-01T10:32:30;7.50;;;1.15;;
53519;SDS011;39397;53.204;5.778;2022-08-01T10:34:56;6.55;;;1.45;;
53519;SDS011;39397;53.204;5.778;2022-08-01T10:37:23;9.70;;;1.35;;
53519;SDS011;39397;53.204;5.778;2022-08-01T10:39:50;7.85;;;1.00;;
53519;SDS011;39397;53.204;5.778;2022-08-01T10:42:16;9.05;;;1.33;;
53519;SDS011;39397;53.204;5.778;2022-08-01T10:44:43;6.40;;;1.17;;
53519;SDS011;39397;53.204;5.778;2022-08-01T10:47:13;5.10;;;1.20;;
53519;SDS011;39397;53.204;5.778;2022-08-01T10:49:45;7.30;;;1.25;;
53519;SDS011;39397;53.204;5.778;2022-08-01T10:52:16;6.22;;;1.27;;
53519;SDS011;39397;53.204;5.778;2022-08-01T10:54:43;5.88;;;1.52;;
53519;SDS011;39397;53.204;5.778;2022-08-01T10:57:09;4.15;;;1.02;;
53519;SDS011;39397;53.204;5.778;2022-08-01T10:59:47;8.15;;;1.23;;
53519;SDS011;39397;53.204;5.778;2022-08-01T11:02:25;4.57;;;0.90;;
53519;SDS011;39397;53.204;5.778;2022-08-01T11:05:07;7.00;;;1.13;;
53519;SDS011;39397;53.204;5.778;2022-08-01T11:10:53;8.48;;;1.30;;
53519;SDS011;39397;53.204;5.778;2022-08-01T11:13:02;7.85;;;1.33;;
53519;SDS011;39397;53.204;5.778;2022-08-01T11:15:30;5.88;;;0.95;;
53519;SDS011;39397;53.204;5.778;2022-08-01T11:17:56;3.40;;;0.82;;
53519;SDS011;39397;53.204;5.778;2022-08-01T11:20:33;7.85;;;1.30;;
53519;SDS011;39397;53.204;5.778;2022-08-01T11:25:26;7.05;;;1.10;;
53519;SDS011;39397;53.204;5.778;2022-08-01T11:30:39;8.15;;;1.70;;
53519;SDS011;39397;53.204;5.778;2022-08-01T11:33:06;5.95;;;1.20;;
53519;SDS011;39397;53.204;5.778;2022-08-01T11:35:32;6.22;;;1.40;;
53519;SDS011;39397;53.204;5.778;2022-08-01T11:49:26;6.40;;;1.48;;
53519;SDS011;39397;53.204;5.778;2022-08-01T11:52:01;5.00;;;1.20;;
53519;SDS011;39397;53.204;5.778;2022-08-01T11:54:35;5.43;;;1.00;;
53519;SDS011;39397;53.204;5.778;2022-08-01T11:57:03;5.13;;;0.95;;
53519;SDS011;39397;53.204;5.778;2022-08-01T11:59:41;6.53;;;0.90;;
53519;SDS011;39397;53.204;5.778;2022-08-01T12:05:15;6.03;;;1.13;;
53519;SDS011;39397;53.204;5.778;2022-08-01T12:07:47;8.50;;;1.08;;
53519;SDS011;39397;53.204;5.778;2022-08-01T12:10:16;7.88;;;1.75;;
53519;SDS011;39397;53.204;5.778;2022-08-01T12:12:44;6.90;;;1.67;;
53519;SDS011;39397;53.204;5.778;2022-08-01T12:15:13;4.65;;;0.90;;
53519;SDS011;39397;53.204;5.778;2022-08-01T12:17:44;5.80;;;1.00;;
53519;SDS011;39397;53.204;5.778;2022-08-01T12:20:13;5.68;;;1.05;;
53519;SDS011;39397;53.204;5.778;2022-08-01T12:22:46;6.05;;;1.50;;
53519;SDS011;39397;53.204;5.778;2022-08-01T12:25:13;6.05;;;1.02;;
53519;SDS011;39397;53.204;5.778;2022-08-01T12:27:44;6.28;;;0.93;;
53519;SDS011;39397;53.204;5.778;2022-08-01T12:30:12;4.30;;;1.00;;
53519;SDS011;39397;53.204;5.778;2022-08-01T12:32:40;6.47;;;1.13;;
53519;SDS011;39397;53.204;5.778;2022-08-01T12:37:40;5.53;;;0.95;;
53519;SDS011;39397;53.204;5.778;2022-08-01T12:40:12;4.93;;;1.15;;
53519;SDS011;39397;53.204;5.778;2022-08-01T12:42:40;4.78;;;1.00;;
53519;SDS011;39397;53.204;5.778;2022-08-01T12:45:07;6.88;;;1.23;;
53519;SDS011;39397;53.204;5.778;2022-08-01T12:47:35;5.30;;;1.00;;
53519;SDS011;39397;53.204;5.778;2022-08-01T12:50:02;5.00;;;1.05;;
53519;SDS011;39397;53.204;5.778;2022-08-01T12:52:31;6.80;;;1.10;;
53519;SDS011;39397;53.204;5.778;2022-08-01T12:57:27;8.95;;;0.98;;
53519;SDS011;39397;53.204;5.778;2022-08-01T12:59:52;5.13;;;0.88;;
53519;SDS011;39397;53.204;5.778;2022-08-01T13:02:32;6.68;;;1.10;;
53519;SDS011;39397;53.204;5.778;2022-08-01T13:04:59;5.25;;;1.08;;
53519;SDS011;39397;53.204;5.778;2022-08-01T13:12:54;6.88;;;1.13;;
53519;SDS011;39397;53.204;5.778;2022-08-01T13:15:31;6.45;;;1.20;;
53519;SDS011;39397;53.204;5.778;2022-08-01T13:18:00;6.72;;;1.25;;
53519;SDS011;39397;53.204;5.778;2022-08-01T13:20:46;8.35;;;1.20;;
53519;SDS011;39397;53.204;5.778;2022-08-01T13:23:12;6.60;;;0.90;;
53519;SDS011;39397;53.204;5.778;2022-08-01T13:25:52;6.65;;;1.20;;
53519;SDS011;39397;53.204;5.778;2022-08-01T13:28:21;4.18;;;0.80;;
53519;SDS011;39397;53.204;5.778;2022-08-01T13:30:56;5.68;;;1.10;;
53519;SDS011;39397;53.204;5.778;2022-08-01T13:33:24;9.95;;;1.95;;
53519;SDS011;39397;53.204;5.778;2022-08-01T13:35:55;6.75;;;1.30;;
53519;SDS011;39397;53.204;5.778;2022-08-01T13:38:21;4.97;;;1.30;;
53519;SDS011;39397;53.204;5.778;2022-08-01T13:41:05;9.45;;;1.05;;
53519;SDS011;39397;53.204;5.778;2022-08-01T13:43:31;6.03;;;1.15;;
53519;SDS011;39397;53.204;5.778;2022-08-01T13:45:57;4.32;;;0.90;;
53519;SDS011;39397;53.204;5.778;2022-08-01T13:48:24;7.55;;;1.20;;
53519;SDS011;39397;53.204;5.778;2022-08-01T13:50:49;6.22;;;1.50;;
53519;SDS011;39397;53.204;5.778;2022-08-01T13:53:15;5.32;;;1.20;;
53519;SDS011;39397;53.204;5.778;2022-08-01T13:55:42;5.03;;;1.02;;
53519;SDS011;39397;53.204;5.778;2022-08-01T13:58:08;6.35;;;1.33;;
53519;SDS011;39397;53.204;5.778;2022-08-01T14:00:34;4.90;;;1.17;;
53519;SDS011;39397;53.204;5.778;2022-08-01T14:02:59;5.22;;;1.05;;
53519;SDS011;39397;53.204;5.778;2022-08-01T14:05:25;7.03;;;1.10;;
53519;SDS011;39397;53.204;5.778;2022-08-01T14:07:51;7.43;;;1.40;;
53519;SDS011;39397;53.204;5.778;2022-08-01T14:10:17;5.50;;;1.17;;
53519;SDS011;39397;53.204;5.778;2022-08-01T14:12:42;5.68;;;1.08;;
53519;SDS011;39397;53.204;5.778;2022-08-01T14:15:08;5.05;;;1.40;;
53519;SDS011;39397;53.204;5.778;2022-08-01T14:17:34;4.45;;;0.90;;
53519;SDS011;39397;53.204;5.778;2022-08-01T14:20:00;10.30;;;1.65;;
53519;SDS011;39397;53.204;5.778;2022-08-01T14:22:27;7.55;;;1.20;;
53519;SDS011;39397;53.204;5.778;2022-08-01T14:24:52;7.10;;;1.08;;
53519;SDS011;39397;53.204;5.778;2022-08-01T14:27:18;4.50;;;0.82;;
53519;SDS011;39397;53.204;5.778;2022-08-01T14:29:44;7.43;;;1.55;;
53519;SDS011;39397;53.204;5.778;2022-08-01T14:32:11;7.30;;;1.13;;
53519;SDS011;39397;53.204;5.778;2022-08-01T14:34:37;5.25;;;1.33;;
53519;SDS011;39397;53.204;5.778;2022-08-01T14:37:03;8.68;;;1.58;;
53519;SDS011;39397;53.204;5.778;2022-08-01T14:39:28;4.88;;;1.10;;
53519;SDS011;39397;53.204;5.778;2022-08-01T14:41:54;7.95;;;1.30;;
53519;SDS011;39397;53.204;5.778;2022-08-01T14:44:20;5.40;;;1.15;;
53519;SDS011;39397;53.204;5.778;2022-08-01T14:46:45;7.45;;;1.40;;
53519;SDS011;39397;53.204;5.778;2022-08-01T14:49:13;5.82;;;1.38;;
53519;SDS011;39397;53.204;5.778;2022-08-01T14:51:39;5.95;;;1.08;;
53519;SDS011;39397;53.204;5.778;2022-08-01T14:54:05;6.95;;;1.10;;
53519;SDS011;39397;53.204;5.778;2022-08-01T14:56:31;7.40;;;1.30;;
53519;SDS011;39397;53.204;5.778;2022-08-01T14:58:56;6.30;;;1.30;;
53519;SDS011;39397;53.204;5.778;2022-08-01T15:01:22;6.03;;;1.40;;
53519;SDS011;39397;53.204;5.778;2022-08-01T15:03:48;7.35;;;1.33;;
53519;SDS011;39397;53.204;5.778;2022-08-01T15:06:15;5.55;;;1.10;;
53519;SDS011;39397;53.204;5.778;2022-08-01T15:08:41;7.10;;;1.20;;
53519;SDS011;39397;53.204;5.778;2022-08-01T15:11:08;5.85;;;1.02;;
53519;SDS011;39397;53.204;5.778;2022-08-01T15:13:34;5.85;;;1.20;;
53519;SDS011;39397;53.204;5.778;2022-08-01T15:16:00;5.68;;;1.10;;
53519;SDS011;39397;53.204;5.778;2022-08-01T15:18:27;4.85;;;1.00;;
53519;SDS011;39397;53.204;5.778;2022-08-01T15:20:53;6.07;;;1.45;;
53519;SDS011;39397;53.204;5.778;2022-08-01T15:23:19;6.78;;;1.10;;
53519;SDS011;39397;53.204;5.778;2022-08-01T15:25:45;6.32;;;1.10;;
53519;SDS011;39397;53.204;5.778;2022-08-01T15:28:11;4.70;;;1.13;;
53519;SDS011;39397;53.204;5.778;2022-08-01T15:30:37;5.38;;;1.38;;
53519;SDS011;39397;53.204;5.778;2022-08-01T15:33:03;5.38;;;1.30;;
53519;SDS011;39397;53.204;5.778;2022-08-01T15:35:29;3.88;;;1.08;;
53519;SDS011;39397;53.204;5.778;2022-08-01T15:37:55;7.05;;;1.52;;
53519;SDS011;39397;53.204;5.778;2022-08-01T15:40:21;4.68;;;1.10;;
53519;SDS011;39397;53.204;5.778;2022-08-01T15:42:46;6.00;;;1.10;;
53519;SDS011;39397;53.204;5.778;2022-08-01T15:45:12;6.93;;;1.30;;